sensor_id;sensor_type;location;lat;lon;timestamp;P1;durP1;ratioP1;P2;durP2;ratioP2
42186;SDS011;27858;51.414;0.018;2023-12-14T00:00:16;3.08;;;1.30;;
42186;SDS011;27858;51.414;0.018;2023-12-14T00:02:44;2.75;;;2.10;;
42186;SDS011;27858;51.414;0.018;2023-12-14T00:05:11;4.10;;;2.22;;
42186;SDS011;27858;51.414;0.018;2023-12-14T00:07:38;6.50;;;1.73;;
42186;SDS011;27858;51.414;0.018;2023-12-14T00:10:05;4.70;;;1.70;;
42186;SDS011;27858;51.414;0.018;2023-12-14T00:12:33;4.60;;;2.50;;
42186;SDS011;27858;51.414;0.018;2023-12-14T00:15:00;10.80;;;2.08;;
42186;SDS011;27858;51.414;0.018;2023-12-14T00:17:27;1.75;;;1.17;;
42186;SDS011;27858;51.414;0.018;2023-12-14T00:19:54;2.88;;;1.42;;
42186;SDS011;27858;51.414;0.018;2023-12-14T00:22:21;5.30;;;1.67;;
42186;SDS011;27858;51.414;0.018;2023-12-14T00:24:48;4.43;;;1.70;;
42186;SDS011;27858;51.414;0.018;2023-12-14T00:27:15;6.35;;;2.15;;
42186;SDS011;27858;51.414;0.018;2023-12-14T00:29:43;4.95;;;1.98;;
42186;SDS011;27858;51.414;0.018;2023-12-14T00:32:09;4.00;;;1.80;;
42186;SDS011;27858;51.414;0.018;2023-12-14T00:34:36;5.88;;;2.40;;
42186;SDS011;27858;51.414;0.018;2023-12-14T00:37:03;1.77;;;1.02;;
42186;SDS011;27858;51.414;0.018;2023-12-14T00:39:30;3.92;;;1.55;;
42186;SDS011;27858;51.414;0.018;2023-12-14T00:41:57;9.63;;;2.50;;
42186;SDS011;27858;51.414;0.018;2023-12-14T00:44:23;3.17;;;1.42;;
42186;SDS011;27858;51.414;0.018;2023-12-14T00:46:50;4.85;;;1.35;;
42186;SDS011;27858;51.414;0.018;2023-12-14T00:49:17;3.40;;;1.70;;
42186;SDS011;27858;51.414;0.018;2023-12-14T00:51:46;3.25;;;1.73;;
42186;SDS011;27858;51.414;0.018;2023-12-14T00:54:13;3.97;;;1.55;;
42186;SDS011;27858;51.414;0.018;2023-12-14T00:56:40;3.20;;;1.55;;
42186;SDS011;27858;51.414;0.018;2023-12-14T00:59:07;2.63;;;1.10;;
42186;SDS011;27858;51.414;0.018;2023-12-14T01:01:34;1.88;;;1.10;;
42186;SDS011;27858;51.414;0.018;2023-12-14T01:04:01;8.65;;;1.85;;
42186;SDS011;27858;51.414;0.018;2023-12-14T01:06:27;5.20;;;1.88;;
42186;SDS011;27858;51.414;0.018;2023-12-14T01:08:54;3.75;;;1.23;;
42186;SDS011;27858;51.414;0.018;2023-12-14T01:11:21;4.53;;;1.48;;
42186;SDS011;27858;51.414;0.018;2023-12-14T01:13:48;2.45;;;1.38;;
42186;SDS011;27858;51.414;0.018;2023-12-14T01:16:15;7.43;;;1.77;;
42186;SDS011;27858;51.414;0.018;2023-12-14T01:18:42;3.83;;;2.47;;
42186;SDS011;27858;51.414;0.018;2023-12-14T01:21:09;4.75;;;1.65;;
42186;SDS011;27858;51.414;0.018;2023-12-14T01:23:36;3.97;;;1.55;;
42186;SDS011;27858;51.414;0.018;2023-12-14T01:26:04;4.70;;;1.50;;
42186;SDS011;27858;51.414;0.018;2023-12-14T01:28:31;9.27;;;1.88;;
42186;SDS011;27858;51.414;0.018;2023-12-14T01:30:57;3.33;;;1.73;;
42186;SDS011;27858;51.414;0.018;2023-12-14T01:33:24;6.57;;;1.98;;
42186;SDS011;27858;51.414;0.018;2023-12-14T01:35:52;3.25;;;1.75;;
42186;SDS011;27858;51.414;0.018;2023-12-14T01:38:18;4.15;;;1.67;;
42186;SDS011;27858;51.414;0.018;2023-12-14T01:40:45;3.50;;;1.73;;
42186;SDS011;27858;51.414;0.018;2023-12-14T01:43:12;2.13;;;1.55;;
42186;SDS011;27858;51.414;0.018;2023-12-14T01:45:39;5.75;;;1.80;;
42186;SDS011;27858;51.414;0.018;2023-12-14T01:48:06;3.97;;;1.80;;
42186;SDS011;27858;51.414;0.018;2023-12-14T01:50:33;5.13;;;1.50;;
42186;SDS011;27858;51.414;0.018;2023-12-14T01:52:59;2.67;;;1.90;;
42186;SDS011;27858;51.414;0.018;2023-12-14T01:55:26;2.55;;;1.42;;
42186;SDS011;27858;51.414;0.018;2023-12-14T01:57:53;8.10;;;3.03;;
42186;SDS011;27858;51.414;0.018;2023-12-14T02:03:11;2.75;;;1.40;;
42186;SDS011;27858;51.414;0.018;2023-12-14T02:05:38;7.78;;;2.33;;
42186;SDS011;27858;51.414;0.018;2023-12-14T02:08:05;5.32;;;1.90;;
42186;SDS011;27858;51.414;0.018;2023-12-14T02:10:32;7.35;;;2.42;;
42186;SDS011;27858;51.414;0.018;2023-12-14T02:13:00;4.78;;;1.23;;
42186;SDS011;27858;51.414;0.018;2023-12-14T02:15:28;3.90;;;1.42;;
42186;SDS011;27858;51.414;0.018;2023-12-14T02:17:55;8.50;;;2.20;;
42186;SDS011;27858;51.414;0.018;2023-12-14T02:20:22;4.63;;;2.45;;
42186;SDS011;27858;51.414;0.018;2023-12-14T02:22:52;5.88;;;1.48;;
42186;SDS011;27858;51.414;0.018;2023-12-14T02:25:20;3.30;;;1.83;;
42186;SDS011;27858;51.414;0.018;2023-12-14T02:27:48;8.40;;;2.75;;
42186;SDS011;27858;51.414;0.018;2023-12-14T02:30:17;2.50;;;1.08;;
42186;SDS011;27858;51.414;0.018;2023-12-14T02:32:44;3.90;;;1.40;;
42186;SDS011;27858;51.414;0.018;2023-12-14T02:35:11;4.28;;;1.77;;
42186;SDS011;27858;51.414;0.018;2023-12-14T02:37:38;3.40;;;1.52;;
42186;SDS011;27858;51.414;0.018;2023-12-14T02:40:08;6.72;;;2.08;;
42186;SDS011;27858;51.414;0.018;2023-12-14T02:42:36;4.85;;;2.55;;
42186;SDS011;27858;51.414;0.018;2023-12-14T02:45:03;1.77;;;1.20;;
42186;SDS011;27858;51.414;0.018;2023-12-14T02:47:31;5.18;;;1.50;;
42186;SDS011;27858;51.414;0.018;2023-12-14T02:49:57;3.05;;;1.85;;
42186;SDS011;27858;51.414;0.018;2023-12-14T02:52:24;1.90;;;1.45;;
42186;SDS011;27858;51.414;0.018;2023-12-14T02:54:51;4.25;;;1.65;;
42186;SDS011;27858;51.414;0.018;2023-12-14T02:57:18;3.88;;;1.83;;
42186;SDS011;27858;51.414;0.018;2023-12-14T02:59:45;5.97;;;1.75;;
42186;SDS011;27858;51.414;0.018;2023-12-14T03:02:11;4.45;;;2.30;;
42186;SDS011;27858;51.414;0.018;2023-12-14T03:04:38;5.20;;;1.70;;
42186;SDS011;27858;51.414;0.018;2023-12-14T03:07:08;3.17;;;1.80;;
42186;SDS011;27858;51.414;0.018;2023-12-14T03:09:35;5.50;;;1.70;;
42186;SDS011;27858;51.414;0.018;2023-12-14T03:12:07;3.95;;;2.33;;
42186;SDS011;27858;51.414;0.018;2023-12-14T03:14:34;4.53;;;2.55;;
42186;SDS011;27858;51.414;0.018;2023-12-14T03:17:01;4.90;;;1.40;;
42186;SDS011;27858;51.414;0.018;2023-12-14T03:19:28;7.38;;;2.00;;
42186;SDS011;27858;51.414;0.018;2023-12-14T03:21:55;3.40;;;1.20;;
42186;SDS011;27858;51.414;0.018;2023-12-14T03:24:22;6.40;;;2.22;;
42186;SDS011;27858;51.414;0.018;2023-12-14T03:26:48;6.47;;;1.95;;
42186;SDS011;27858;51.414;0.018;2023-12-14T03:29:16;5.55;;;1.75;;
42186;SDS011;27858;51.414;0.018;2023-12-14T03:31:43;4.05;;;1.50;;
42186;SDS011;27858;51.414;0.018;2023-12-14T03:34:09;10.57;;;2.05;;
42186;SDS011;27858;51.414;0.018;2023-12-14T03:36:36;2.72;;;1.40;;
42186;SDS011;27858;51.414;0.018;2023-12-14T03:39:03;2.97;;;1.55;;
42186;SDS011;27858;51.414;0.018;2023-12-14T03:41:30;3.03;;;1.38;;
42186;SDS011;27858;51.414;0.018;2023-12-14T03:43:56;5.03;;;2.13;;
42186;SDS011;27858;51.414;0.018;2023-12-14T03:46:24;8.55;;;2.90;;
42186;SDS011;27858;51.414;0.018;2023-12-14T03:48:51;3.33;;;1.65;;
42186;SDS011;27858;51.414;0.018;2023-12-14T03:51:21;4.78;;;1.65;;
42186;SDS011;27858;51.414;0.018;2023-12-14T03:53:48;4.47;;;1.60;;
42186;SDS011;27858;51.414;0.018;2023-12-14T03:56:14;13.02;;;1.95;;
42186;SDS011;27858;51.414;0.018;2023-12-14T03:58:41;7.65;;;2.58;;
42186;SDS011;27858;51.414;0.018;2023-12-14T04:01:14;8.32;;;2.28;;
42186;SDS011;27858;51.414;0.018;2023-12-14T04:03:45;6.78;;;1.77;;
42186;SDS011;27858;51.414;0.018;2023-12-14T04:06:12;4.15;;;1.15;;
42186;SDS011;27858;51.414;0.018;2023-12-14T04:08:42;4.63;;;2.08;;
42186;SDS011;27858;51.414;0.018;2023-12-14T04:11:09;7.28;;;3.03;;
42186;SDS011;27858;51.414;0.018;2023-12-14T04:13:37;7.65;;;2.35;;
42186;SDS011;27858;51.414;0.018;2023-12-14T04:16:05;5.60;;;1.75;;
42186;SDS011;27858;51.414;0.018;2023-12-14T04:18:32;4.82;;;2.58;;
42186;SDS011;27858;51.414;0.018;2023-12-14T04:21:00;15.10;;;2.63;;
42186;SDS011;27858;51.414;0.018;2023-12-14T04:23:26;4.85;;;1.92;;
42186;SDS011;27858;51.414;0.018;2023-12-14T04:25:53;8.30;;;2.05;;
42186;SDS011;27858;51.414;0.018;2023-12-14T04:28:20;3.67;;;1.63;;
42186;SDS011;27858;51.414;0.018;2023-12-14T04:30:47;10.88;;;4.25;;
42186;SDS011;27858;51.414;0.018;2023-12-14T04:33:14;7.15;;;1.75;;
42186;SDS011;27858;51.414;0.018;2023-12-14T04:35:41;6.55;;;2.20;;
42186;SDS011;27858;51.414;0.018;2023-12-14T04:38:07;4.85;;;2.08;;
42186;SDS011;27858;51.414;0.018;2023-12-14T04:40:34;7.40;;;1.95;;
42186;SDS011;27858;51.414;0.018;2023-12-14T04:43:01;7.75;;;2.20;;
42186;SDS011;27858;51.414;0.018;2023-12-14T04:45:29;9.02;;;2.22;;
42186;SDS011;27858;51.414;0.018;2023-12-14T04:47:55;5.13;;;2.15;;
42186;SDS011;27858;51.414;0.018;2023-12-14T04:50:22;4.72;;;2.50;;
42186;SDS011;27858;51.414;0.018;2023-12-14T04:52:49;3.67;;;1.60;;
42186;SDS011;27858;51.414;0.018;2023-12-14T04:55:16;7.88;;;1.95;;
42186;SDS011;27858;51.414;0.018;2023-12-14T04:57:43;6.63;;;2.83;;
42186;SDS011;27858;51.414;0.018;2023-12-14T05:00:12;7.20;;;1.98;;
42186;SDS011;27858;51.414;0.018;2023-12-14T05:02:39;13.75;;;2.30;;
42186;SDS011;27858;51.414;0.018;2023-12-14T05:05:06;3.90;;;1.70;;
42186;SDS011;27858;51.414;0.018;2023-12-14T05:07:33;5.22;;;2.30;;
42186;SDS011;27858;51.414;0.018;2023-12-14T05:10:00;4.68;;;2.00;;
42186;SDS011;27858;51.414;0.018;2023-12-14T05:12:26;7.05;;;2.10;;
42186;SDS011;27858;51.414;0.018;2023-12-14T05:14:55;4.75;;;2.47;;
42186;SDS011;27858;51.414;0.018;2023-12-14T05:17:21;4.65;;;2.20;;
42186;SDS011;27858;51.414;0.018;2023-12-14T05:19:48;4.80;;;2.40;;
42186;SDS011;27858;51.414;0.018;2023-12-14T05:22:16;9.82;;;2.53;;
42186;SDS011;27858;51.414;0.018;2023-12-14T05:24:46;5.18;;;2.38;;
42186;SDS011;27858;51.414;0.018;2023-12-14T05:27:13;3.92;;;2.08;;
42186;SDS011;27858;51.414;0.018;2023-12-14T05:29:40;8.25;;;3.72;;
42186;SDS011;27858;51.414;0.018;2023-12-14T05:32:07;6.95;;;2.55;;
42186;SDS011;27858;51.414;0.018;2023-12-14T05:34:34;5.93;;;2.13;;
42186;SDS011;27858;51.414;0.018;2023-12-14T05:37:01;8.55;;;2.83;;
42186;SDS011;27858;51.414;0.018;2023-12-14T05:39:28;5.95;;;2.15;;
42186;SDS011;27858;51.414;0.018;2023-12-14T05:41:55;4.75;;;2.05;;
42186;SDS011;27858;51.414;0.018;2023-12-14T05:44:25;3.05;;;1.92;;
42186;SDS011;27858;51.414;0.018;2023-12-14T05:46:52;6.70;;;2.30;;
42186;SDS011;27858;51.414;0.018;2023-12-14T05:49:19;3.67;;;1.75;;
42186;SDS011;27858;51.414;0.018;2023-12-14T05:51:46;6.03;;;2.55;;
42186;SDS011;27858;51.414;0.018;2023-12-14T05:54:12;8.13;;;2.47;;
42186;SDS011;27858;51.414;0.018;2023-12-14T05:56:39;4.15;;;2.50;;
42186;SDS011;27858;51.414;0.018;2023-12-14T05:59:08;5.75;;;2.30;;
42186;SDS011;27858;51.414;0.018;2023-12-14T06:01:35;9.13;;;3.13;;
42186;SDS011;27858;51.414;0.018;2023-12-14T06:04:03;3.33;;;1.83;;
42186;SDS011;27858;51.414;0.018;2023-12-14T06:06:30;7.35;;;3.33;;
42186;SDS011;27858;51.414;0.018;2023-12-14T06:08:56;5.32;;;2.63;;
42186;SDS011;27858;51.414;0.018;2023-12-14T06:11:23;4.43;;;2.50;;
42186;SDS011;27858;51.414;0.018;2023-12-14T06:13:50;6.10;;;1.90;;
42186;SDS011;27858;51.414;0.018;2023-12-14T06:16:17;6.05;;;2.42;;
42186;SDS011;27858;51.414;0.018;2023-12-14T06:18:44;4.72;;;1.80;;
42186;SDS011;27858;51.414;0.018;2023-12-14T06:21:11;8.38;;;3.25;;
42186;SDS011;27858;51.414;0.018;2023-12-14T06:23:39;3.85;;;2.22;;
42186;SDS011;27858;51.414;0.018;2023-12-14T06:26:05;8.63;;;3.05;;
42186;SDS011;27858;51.414;0.018;2023-12-14T06:28:33;6.22;;;3.08;;
42186;SDS011;27858;51.414;0.018;2023-12-14T06:30:59;8.00;;;3.13;;
42186;SDS011;27858;51.414;0.018;2023-12-14T06:33:27;7.22;;;3.15;;
42186;SDS011;27858;51.414;0.018;2023-12-14T06:35:55;9.93;;;3.28;;
42186;SDS011;27858;51.414;0.018;2023-12-14T06:38:22;10.40;;;2.42;;
42186;SDS011;27858;51.414;0.018;2023-12-14T06:40:49;5.03;;;2.33;;
42186;SDS011;27858;51.414;0.018;2023-12-14T06:43:16;6.63;;;3.00;;
42186;SDS011;27858;51.414;0.018;2023-12-14T06:45:43;7.70;;;3.03;;
42186;SDS011;27858;51.414;0.018;2023-12-14T06:48:09;11.52;;;3.38;;
42186;SDS011;27858;51.414;0.018;2023-12-14T06:50:36;3.92;;;1.95;;
42186;SDS011;27858;51.414;0.018;2023-12-14T06:53:03;7.57;;;2.10;;
42186;SDS011;27858;51.414;0.018;2023-12-14T06:55:30;10.32;;;4.22;;
42186;SDS011;27858;51.414;0.018;2023-12-14T06:57:57;5.93;;;2.25;;
42186;SDS011;27858;51.414;0.018;2023-12-14T07:00:24;8.18;;;2.60;;
42186;SDS011;27858;51.414;0.018;2023-12-14T07:02:50;6.85;;;2.40;;
42186;SDS011;27858;51.414;0.018;2023-12-14T07:05:17;16.60;;;3.45;;
42186;SDS011;27858;51.414;0.018;2023-12-14T07:07:44;5.82;;;2.65;;
42186;SDS011;27858;51.414;0.018;2023-12-14T07:10:11;9.63;;;3.25;;
42186;SDS011;27858;51.414;0.018;2023-12-14T07:12:44;5.15;;;2.38;;
42186;SDS011;27858;51.414;0.018;2023-12-14T07:15:11;9.57;;;4.43;;
42186;SDS011;27858;51.414;0.018;2023-12-14T07:17:38;7.03;;;2.53;;
42186;SDS011;27858;51.414;0.018;2023-12-14T07:20:06;8.57;;;2.88;;
42186;SDS011;27858;51.414;0.018;2023-12-14T07:22:33;11.90;;;3.53;;
42186;SDS011;27858;51.414;0.018;2023-12-14T07:25:01;6.88;;;2.83;;
42186;SDS011;27858;51.414;0.018;2023-12-14T07:27:28;7.35;;;3.78;;
42186;SDS011;27858;51.414;0.018;2023-12-14T07:29:54;8.02;;;2.03;;
42186;SDS011;27858;51.414;0.018;2023-12-14T07:32:21;9.77;;;3.83;;
42186;SDS011;27858;51.414;0.018;2023-12-14T07:34:49;7.70;;;3.80;;
42186;SDS011;27858;51.414;0.018;2023-12-14T07:37:16;7.25;;;2.70;;
42186;SDS011;27858;51.414;0.018;2023-12-14T07:39:43;10.23;;;4.30;;
42186;SDS011;27858;51.414;0.018;2023-12-14T07:42:09;11.23;;;5.20;;
42186;SDS011;27858;51.414;0.018;2023-12-14T07:44:36;18.75;;;4.32;;
42186;SDS011;27858;51.414;0.018;2023-12-14T07:47:06;5.55;;;2.75;;
42186;SDS011;27858;51.414;0.018;2023-12-14T07:49:33;8.65;;;4.32;;
42186;SDS011;27858;51.414;0.018;2023-12-14T07:52:01;8.38;;;3.22;;
42186;SDS011;27858;51.414;0.018;2023-12-14T07:54:27;5.20;;;2.63;;
42186;SDS011;27858;51.414;0.018;2023-12-14T07:56:55;9.95;;;2.65;;
42186;SDS011;27858;51.414;0.018;2023-12-14T07:59:21;6.53;;;2.38;;
42186;SDS011;27858;51.414;0.018;2023-12-14T08:01:49;5.32;;;1.70;;
42186;SDS011;27858;51.414;0.018;2023-12-14T08:04:16;3.63;;;2.10;;
42186;SDS011;27858;51.414;0.018;2023-12-14T08:06:42;4.45;;;2.03;;
42186;SDS011;27858;51.414;0.018;2023-12-14T08:09:09;6.72;;;2.67;;
42186;SDS011;27858;51.414;0.018;2023-12-14T08:11:36;6.65;;;2.55;;
42186;SDS011;27858;51.414;0.018;2023-12-14T08:14:03;5.80;;;2.08;;
42186;SDS011;27858;51.414;0.018;2023-12-14T08:16:30;4.90;;;2.28;;
42186;SDS011;27858;51.414;0.018;2023-12-14T08:18:57;6.45;;;3.20;;
42186;SDS011;27858;51.414;0.018;2023-12-14T08:21:24;7.40;;;3.42;;
42186;SDS011;27858;51.414;0.018;2023-12-14T08:23:50;13.00;;;4.65;;
42186;SDS011;27858;51.414;0.018;2023-12-14T08:26:17;7.43;;;3.05;;
42186;SDS011;27858;51.414;0.018;2023-12-14T08:28:44;19.00;;;7.95;;
42186;SDS011;27858;51.414;0.018;2023-12-14T08:31:12;12.20;;;5.82;;
42186;SDS011;27858;51.414;0.018;2023-12-14T08:33:40;5.40;;;3.30;;
42186;SDS011;27858;51.414;0.018;2023-12-14T08:36:15;13.25;;;5.63;;
42186;SDS011;27858;51.414;0.018;2023-12-14T08:38:43;19.20;;;6.38;;
42186;SDS011;27858;51.414;0.018;2023-12-14T08:41:13;13.00;;;6.03;;
42186;SDS011;27858;51.414;0.018;2023-12-14T08:43:41;10.40;;;4.30;;
42186;SDS011;27858;51.414;0.018;2023-12-14T08:46:09;14.55;;;4.30;;
42186;SDS011;27858;51.414;0.018;2023-12-14T08:48:39;5.07;;;3.03;;
42186;SDS011;27858;51.414;0.018;2023-12-14T08:51:06;9.95;;;2.42;;
42186;SDS011;27858;51.414;0.018;2023-12-14T08:53:32;6.75;;;2.55;;
42186;SDS011;27858;51.414;0.018;2023-12-14T08:55:59;4.05;;;2.30;;
42186;SDS011;27858;51.414;0.018;2023-12-14T08:58:26;6.60;;;3.10;;
42186;SDS011;27858;51.414;0.018;2023-12-14T09:00:53;5.28;;;2.35;;
42186;SDS011;27858;51.414;0.018;2023-12-14T09:03:20;12.52;;;3.25;;
42186;SDS011;27858;51.414;0.018;2023-12-14T09:05:47;13.57;;;2.60;;
42186;SDS011;27858;51.414;0.018;2023-12-14T09:08:14;8.35;;;3.58;;
42186;SDS011;27858;51.414;0.018;2023-12-14T09:10:42;6.82;;;2.70;;
42186;SDS011;27858;51.414;0.018;2023-12-14T09:13:09;14.57;;;5.60;;
42186;SDS011;27858;51.414;0.018;2023-12-14T09:15:36;17.05;;;6.50;;
42186;SDS011;27858;51.414;0.018;2023-12-14T09:18:03;15.52;;;6.40;;
42186;SDS011;27858;51.414;0.018;2023-12-14T09:20:30;18.65;;;5.78;;
42186;SDS011;27858;51.414;0.018;2023-12-14T09:22:57;11.75;;;6.97;;
42186;SDS011;27858;51.414;0.018;2023-12-14T09:25:24;7.05;;;3.85;;
42186;SDS011;27858;51.414;0.018;2023-12-14T09:27:51;6.10;;;2.50;;
42186;SDS011;27858;51.414;0.018;2023-12-14T09:30:18;6.38;;;3.45;;
42186;SDS011;27858;51.414;0.018;2023-12-14T09:32:45;6.05;;;2.78;;
42186;SDS011;27858;51.414;0.018;2023-12-14T09:35:12;5.85;;;1.88;;
42186;SDS011;27858;51.414;0.018;2023-12-14T09:37:39;5.50;;;2.55;;
42186;SDS011;27858;51.414;0.018;2023-12-14T09:40:07;4.38;;;1.85;;
42186;SDS011;27858;51.414;0.018;2023-12-14T09:42:36;7.53;;;2.00;;
42186;SDS011;27858;51.414;0.018;2023-12-14T09:45:06;10.02;;;2.00;;
42186;SDS011;27858;51.414;0.018;2023-12-14T09:47:35;3.45;;;2.20;;
42186;SDS011;27858;51.414;0.018;2023-12-14T09:50:04;7.10;;;3.53;;
42186;SDS011;27858;51.414;0.018;2023-12-14T09:52:31;6.80;;;2.17;;
42186;SDS011;27858;51.414;0.018;2023-12-14T09:55:00;15.55;;;4.20;;
42186;SDS011;27858;51.414;0.018;2023-12-14T09:57:30;3.53;;;2.30;;
42186;SDS011;27858;51.414;0.018;2023-12-14T09:59:57;7.05;;;2.75;;
42186;SDS011;27858;51.414;0.018;2023-12-14T10:02:25;8.15;;;3.83;;
42186;SDS011;27858;51.414;0.018;2023-12-14T10:04:56;7.68;;;3.72;;
42186;SDS011;27858;51.414;0.018;2023-12-14T10:07:23;6.43;;;3.85;;
42186;SDS011;27858;51.414;0.018;2023-12-14T10:09:50;6.28;;;3.28;;
42186;SDS011;27858;51.414;0.018;2023-12-14T10:12:19;8.82;;;4.57;;
42186;SDS011;27858;51.414;0.018;2023-12-14T10:14:48;10.48;;;5.43;;
42186;SDS011;27858;51.414;0.018;2023-12-14T10:17:27;10.02;;;6.00;;
42186;SDS011;27858;51.414;0.018;2023-12-14T10:19:59;7.28;;;4.68;;
42186;SDS011;27858;51.414;0.018;2023-12-14T10:22:32;12.00;;;4.30;;
42186;SDS011;27858;51.414;0.018;2023-12-14T10:24:59;6.13;;;2.75;;
42186;SDS011;27858;51.414;0.018;2023-12-14T10:27:27;8.50;;;2.75;;
42186;SDS011;27858;51.414;0.018;2023-12-14T10:29:55;9.52;;;3.50;;
42186;SDS011;27858;51.414;0.018;2023-12-14T10:32:23;2.30;;;1.40;;
42186;SDS011;27858;51.414;0.018;2023-12-14T10:34:50;11.80;;;3.22;;
42186;SDS011;27858;51.414;0.018;2023-12-14T10:37:17;7.20;;;3.03;;
42186;SDS011;27858;51.414;0.018;2023-12-14T10:39:47;2.97;;;2.00;;
42186;SDS011;27858;51.414;0.018;2023-12-14T10:42:15;3.20;;;1.73;;
42186;SDS011;27858;51.414;0.018;2023-12-14T10:44:48;5.25;;;1.52;;
42186;SDS011;27858;51.414;0.018;2023-12-14T10:47:21;9.65;;;3.13;;
42186;SDS011;27858;51.414;0.018;2023-12-14T10:49:50;2.65;;;1.35;;
42186;SDS011;27858;51.414;0.018;2023-12-14T10:52:18;6.70;;;2.67;;
42186;SDS011;27858;51.414;0.018;2023-12-14T10:54:47;4.85;;;2.10;;
42186;SDS011;27858;51.414;0.018;2023-12-14T10:57:20;5.05;;;1.80;;
42186;SDS011;27858;51.414;0.018;2023-12-14T10:59:55;3.90;;;2.22;;
42186;SDS011;27858;51.414;0.018;2023-12-14T11:02:27;3.75;;;1.73;;
42186;SDS011;27858;51.414;0.018;2023-12-14T11:04:54;5.80;;;2.55;;
42186;SDS011;27858;51.414;0.018;2023-12-14T11:08:05;7.32;;;2.08;;
42186;SDS011;27858;51.414;0.018;2023-12-14T11:10:39;4.20;;;1.88;;
42186;SDS011;27858;51.414;0.018;2023-12-14T11:13:09;7.97;;;1.80;;
42186;SDS011;27858;51.414;0.018;2023-12-14T11:15:38;6.03;;;1.77;;
42186;SDS011;27858;51.414;0.018;2023-12-14T11:18:19;3.45;;;2.60;;
42186;SDS011;27858;51.414;0.018;2023-12-14T11:20:49;5.35;;;2.47;;
42186;SDS011;27858;51.414;0.018;2023-12-14T11:23:16;8.82;;;2.47;;
42186;SDS011;27858;51.414;0.018;2023-12-14T11:25:51;4.93;;;2.25;;
42186;SDS011;27858;51.414;0.018;2023-12-14T11:28:39;3.20;;;1.73;;
42186;SDS011;27858;51.414;0.018;2023-12-14T11:31:10;3.87;;;1.70;;
42186;SDS011;27858;51.414;0.018;2023-12-14T11:33:38;5.15;;;1.48;;
42186;SDS011;27858;51.414;0.018;2023-12-14T11:36:10;2.72;;;1.45;;
42186;SDS011;27858;51.414;0.018;2023-12-14T11:38:38;3.80;;;1.80;;
42186;SDS011;27858;51.414;0.018;2023-12-14T11:41:05;6.63;;;1.80;;
42186;SDS011;27858;51.414;0.018;2023-12-14T11:43:39;3.20;;;1.63;;
42186;SDS011;27858;51.414;0.018;2023-12-14T11:46:08;3.45;;;1.95;;
42186;SDS011;27858;51.414;0.018;2023-12-14T11:48:35;4.88;;;1.60;;
42186;SDS011;27858;51.414;0.018;2023-12-14T11:51:03;5.57;;;2.35;;
42186;SDS011;27858;51.414;0.018;2023-12-14T11:53:30;2.45;;;1.50;;
42186;SDS011;27858;51.414;0.018;2023-12-14T11:55:57;3.33;;;1.80;;
42186;SDS011;27858;51.414;0.018;2023-12-14T11:58:29;2.95;;;1.70;;
42186;SDS011;27858;51.414;0.018;2023-12-14T12:01:15;2.17;;;1.48;;
42186;SDS011;27858;51.414;0.018;2023-12-14T12:03:44;5.05;;;2.00;;
42186;SDS011;27858;51.414;0.018;2023-12-14T12:06:21;9.63;;;1.95;;
42186;SDS011;27858;51.414;0.018;2023-12-14T12:08:51;15.30;;;2.45;;
42186;SDS011;27858;51.414;0.018;2023-12-14T12:11:21;6.03;;;1.55;;
42186;SDS011;27858;51.414;0.018;2023-12-14T12:13:57;9.75;;;1.63;;
42186;SDS011;27858;51.414;0.018;2023-12-14T12:16:26;5.28;;;1.95;;
42186;SDS011;27858;51.414;0.018;2023-12-14T12:18:53;6.55;;;2.55;;
42186;SDS011;27858;51.414;0.018;2023-12-14T12:21:20;5.47;;;2.10;;
42186;SDS011;27858;51.414;0.018;2023-12-14T12:23:47;4.70;;;1.90;;
42186;SDS011;27858;51.414;0.018;2023-12-14T12:26:14;5.75;;;2.35;;
42186;SDS011;27858;51.414;0.018;2023-12-14T12:28:41;5.50;;;1.73;;
42186;SDS011;27858;51.414;0.018;2023-12-14T12:31:08;9.55;;;1.67;;
42186;SDS011;27858;51.414;0.018;2023-12-14T12:33:35;3.97;;;1.95;;
42186;SDS011;27858;51.414;0.018;2023-12-14T12:36:05;4.82;;;2.10;;
42186;SDS011;27858;51.414;0.018;2023-12-14T12:38:32;2.75;;;1.73;;
42186;SDS011;27858;51.414;0.018;2023-12-14T12:40:59;4.15;;;1.90;;
42186;SDS011;27858;51.414;0.018;2023-12-14T12:43:27;5.68;;;2.15;;
42186;SDS011;27858;51.414;0.018;2023-12-14T12:45:53;7.05;;;1.83;;
42186;SDS011;27858;51.414;0.018;2023-12-14T12:48:20;2.95;;;1.85;;
42186;SDS011;27858;51.414;0.018;2023-12-14T12:50:51;4.03;;;2.30;;
42186;SDS011;27858;51.414;0.018;2023-12-14T12:53:18;6.78;;;2.58;;
42186;SDS011;27858;51.414;0.018;2023-12-14T12:55:45;4.65;;;2.17;;
42186;SDS011;27858;51.414;0.018;2023-12-14T12:58:12;3.03;;;1.80;;
42186;SDS011;27858;51.414;0.018;2023-12-14T13:00:41;1.73;;;1.40;;
42186;SDS011;27858;51.414;0.018;2023-12-14T13:03:08;2.78;;;1.58;;
42186;SDS011;27858;51.414;0.018;2023-12-14T13:05:36;5.55;;;1.30;;
42186;SDS011;27858;51.414;0.018;2023-12-14T13:08:03;6.53;;;2.53;;
42186;SDS011;27858;51.414;0.018;2023-12-14T13:10:30;3.75;;;1.42;;
42186;SDS011;27858;51.414;0.018;2023-12-14T13:12:58;4.32;;;1.65;;
42186;SDS011;27858;51.414;0.018;2023-12-14T13:15:25;3.45;;;1.65;;
42186;SDS011;27858;51.414;0.018;2023-12-14T13:17:55;3.88;;;2.42;;
42186;SDS011;27858;51.414;0.018;2023-12-14T13:20:22;3.55;;;1.83;;
42186;SDS011;27858;51.414;0.018;2023-12-14T13:22:49;3.33;;;1.70;;
42186;SDS011;27858;51.414;0.018;2023-12-14T13:25:16;8.73;;;2.00;;
42186;SDS011;27858;51.414;0.018;2023-12-14T13:27:43;3.25;;;1.50;;
42186;SDS011;27858;51.414;0.018;2023-12-14T13:30:11;6.07;;;1.52;;
42186;SDS011;27858;51.414;0.018;2023-12-14T13:35:10;3.85;;;2.10;;
42186;SDS011;27858;51.414;0.018;2023-12-14T13:37:37;4.38;;;2.08;;
42186;SDS011;27858;51.414;0.018;2023-12-14T13:40:04;3.92;;;1.73;;
42186;SDS011;27858;51.414;0.018;2023-12-14T13:42:31;6.30;;;2.33;;
42186;SDS011;27858;51.414;0.018;2023-12-14T13:44:58;3.92;;;2.03;;
42186;SDS011;27858;51.414;0.018;2023-12-14T13:47:25;4.82;;;1.80;;
42186;SDS011;27858;51.414;0.018;2023-12-14T13:49:53;5.95;;;2.92;;
42186;SDS011;27858;51.414;0.018;2023-12-14T13:52:20;4.78;;;2.47;;
42186;SDS011;27858;51.414;0.018;2023-12-14T13:54:47;3.88;;;1.80;;
42186;SDS011;27858;51.414;0.018;2023-12-14T13:57:14;5.05;;;2.50;;
42186;SDS011;27858;51.414;0.018;2023-12-14T13:59:40;1.83;;;1.52;;
42186;SDS011;27858;51.414;0.018;2023-12-14T14:02:08;5.55;;;2.20;;
42186;SDS011;27858;51.414;0.018;2023-12-14T14:04:35;5.18;;;1.30;;
42186;SDS011;27858;51.414;0.018;2023-12-14T14:07:02;2.63;;;1.10;;
42186;SDS011;27858;51.414;0.018;2023-12-14T14:09:29;4.90;;;1.50;;
42186;SDS011;27858;51.414;0.018;2023-12-14T14:11:56;3.13;;;1.58;;
42186;SDS011;27858;51.414;0.018;2023-12-14T14:14:23;2.30;;;1.88;;
42186;SDS011;27858;51.414;0.018;2023-12-14T14:16:50;3.78;;;1.77;;
42186;SDS011;27858;51.414;0.018;2023-12-14T14:19:18;5.40;;;1.60;;
42186;SDS011;27858;51.414;0.018;2023-12-14T14:21:45;4.50;;;1.73;;
42186;SDS011;27858;51.414;0.018;2023-12-14T14:24:12;4.90;;;2.10;;
42186;SDS011;27858;51.414;0.018;2023-12-14T14:26:39;3.15;;;2.20;;
42186;SDS011;27858;51.414;0.018;2023-12-14T14:29:06;8.45;;;2.80;;
42186;SDS011;27858;51.414;0.018;2023-12-14T14:31:32;6.70;;;1.67;;
42186;SDS011;27858;51.414;0.018;2023-12-14T14:33:59;5.03;;;2.35;;
42186;SDS011;27858;51.414;0.018;2023-12-14T14:36:27;3.95;;;2.22;;
42186;SDS011;27858;51.414;0.018;2023-12-14T14:38:54;2.15;;;1.40;;
42186;SDS011;27858;51.414;0.018;2023-12-14T14:41:26;6.75;;;2.85;;
42186;SDS011;27858;51.414;0.018;2023-12-14T14:43:53;12.15;;;3.58;;
42186;SDS011;27858;51.414;0.018;2023-12-14T14:46:20;6.65;;;2.60;;
42186;SDS011;27858;51.414;0.018;2023-12-14T14:48:47;3.50;;;2.13;;
42186;SDS011;27858;51.414;0.018;2023-12-14T14:51:14;8.35;;;3.08;;
42186;SDS011;27858;51.414;0.018;2023-12-14T14:53:41;4.38;;;2.58;;